Terminal Aerodrome Forecast
Issued by NWS

Home | Current Version | Previous Version | Text Only | Print | Product List | Glossary On
Versions: 1 2 3 4 5 6 7 8 9 10 11 12
000
FTUS43 KICT 251120
TAFRSL
TAF
KRSL 251120Z 2512/2612 36007KT P6SM -SHRA VCTS SCT008 BKN025CB
      TEMPO 2512/2514 3SM +TSRA OVC015CB
     FM251400 01009KT P6SM -SHRA VCTS BKN008 OVC015CB
      TEMPO 2514/2517 3SM +TSRA OVC008CB
     FM251700 36013KT 6SM -SHRA VCTS OVC012CB
     FM252300 36010KT 6SM BR VCSH OVC009=

USA.gov is the U.S. government's official web portal to all federal, state and local government web resources and services.